createdAt,value
2022-08-26T00:02:24.833Z,20.16
2022-08-26T00:05:05.192Z,20.22
2022-08-26T00:08:25.101Z,20.24
2022-08-26T00:11:05.560Z,20.27
2022-08-26T00:14:08.183Z,20.29
2022-08-26T00:17:48.043Z,20.32
2022-08-26T00:21:00.324Z,20.37
2022-08-26T00:27:33.411Z,20.37
2022-08-26T00:30:08.427Z,20.38
2022-08-26T00:32:39.809Z,20.40
2022-08-26T00:35:16.210Z,20.41
2022-08-26T00:37:54.167Z,20.43
2022-08-26T00:40:41.467Z,20.45
2022-08-26T00:43:12.356Z,20.44
2022-08-26T00:46:05.119Z,20.43
2022-08-26T00:52:04.555Z,20.42
2022-08-26T00:54:40.159Z,20.44
2022-08-26T00:57:16.339Z,20.45
2022-08-26T01:07:34.768Z,20.47
2022-08-26T01:10:10.756Z,20.48
2022-08-26T01:13:03.817Z,20.48
2022-08-26T01:15:38.667Z,20.48
2022-08-26T01:18:08.784Z,20.48
2022-08-26T01:21:02.304Z,20.47
2022-08-26T01:23:35.353Z,20.45
2022-08-26T01:26:19.717Z,20.45
2022-08-26T01:29:03.379Z,20.44
2022-08-26T01:32:02.054Z,20.42
2022-08-26T01:34:46.181Z,20.41
2022-08-26T01:37:21.364Z,20.35
2022-08-26T01:40:04.224Z,20.31
2022-08-26T01:42:35.648Z,20.26
2022-08-26T01:45:12.540Z,20.21
2022-08-26T01:48:05.251Z,20.18
2022-08-26T01:50:38.358Z,20.16
2022-08-26T01:53:11.599Z,20.13
2022-08-26T01:56:02.648Z,20.09
2022-08-26T01:59:03.892Z,20.06
2022-08-26T02:01:35.861Z,20.02
2022-08-26T02:04:14.653Z,19.99
2022-08-26T02:07:02.803Z,19.91
2022-08-26T02:09:41.090Z,19.81
2022-08-26T02:12:13.308Z,19.76
2022-08-26T02:15:06.544Z,19.72
2022-08-26T02:17:39.972Z,19.65
2022-08-26T02:20:13.123Z,19.59
2022-08-26T02:26:00.967Z,19.46
2022-08-26T02:28:38.815Z,19.42
2022-08-26T02:31:08.028Z,19.39
2022-08-26T02:33:37.906Z,19.34
2022-08-26T02:36:12.163Z,19.31
2022-08-26T02:38:49.365Z,19.26
2022-08-26T02:41:44.793Z,19.23
2022-08-26T02:44:37.103Z,19.19
2022-08-26T02:47:30.283Z,19.07
2022-08-26T02:50:37.697Z,18.99
2022-08-26T02:53:36.253Z,18.89
2022-08-26T02:56:33.101Z,18.82
2022-08-26T02:59:29.163Z,18.72
2022-08-26T03:02:06.408Z,18.66
2022-08-26T03:04:35.278Z,18.60
2022-08-26T03:10:14.752Z,18.53
2022-08-26T03:12:44.004Z,18.49
2022-08-26T03:15:35.673Z,18.45
2022-08-26T03:18:17.490Z,18.39
2022-08-26T03:21:00.705Z,18.38
2022-08-26T03:23:34.681Z,18.36
2022-08-26T03:26:08.081Z,18.35
2022-08-26T03:29:01.666Z,18.35
2022-08-26T03:31:36.036Z,18.33
2022-08-26T03:34:07.222Z,18.30
2022-08-26T03:36:37.511Z,18.26
2022-08-26T03:39:06.210Z,18.25
2022-08-26T03:41:38.692Z,18.26
2022-08-26T03:44:16.886Z,18.24
2022-08-26T03:46:48.358Z,18.23
2022-08-26T03:49:29.016Z,18.20
2022-08-26T03:52:08.085Z,18.18
2022-08-26T03:54:36.559Z,18.12
2022-08-26T03:57:04.893Z,18.11
2022-08-26T03:59:36.154Z,18.05
2022-08-26T04:02:11.802Z,18.01
2022-08-26T04:04:40.648Z,17.99
2022-08-26T04:07:12.163Z,17.97
2022-08-26T04:09:40.400Z,17.97
2022-08-26T04:12:11.496Z,17.93
2022-08-26T04:14:39.865Z,17.88
2022-08-26T04:17:08.221Z,17.85
2022-08-26T04:19:36.722Z,17.81
2022-08-26T04:22:10.363Z,17.77
2022-08-26T04:24:40.335Z,17.76
2022-08-26T04:30:07.342Z,17.74
2022-08-26T04:32:37.400Z,17.69
2022-08-26T04:35:12.052Z,17.66
2022-08-26T04:37:42.997Z,17.64
2022-08-26T04:40:18.339Z,17.62
2022-08-26T04:42:46.704Z,17.61
2022-08-26T04:45:28.878Z,17.58
2022-08-26T04:48:02.782Z,17.55
2022-08-26T04:50:37.549Z,17.51
2022-08-26T04:53:08.993Z,17.49
2022-08-26T04:55:39.820Z,17.47
2022-08-26T04:58:11.360Z,17.44
2022-08-26T05:00:39.688Z,17.41
2022-08-26T05:03:10.555Z,17.35
2022-08-26T05:05:43.449Z,17.33
2022-08-26T05:08:13.551Z,17.31
2022-08-26T05:10:47.368Z,17.28
2022-08-26T05:13:24.977Z,17.24
2022-08-26T05:15:53.461Z,17.21
2022-08-26T05:18:28.498Z,17.20
2022-08-26T05:21:05.966Z,17.18
2022-08-26T05:23:37.129Z,17.17
2022-08-26T05:26:11.634Z,17.16
2022-08-26T05:28:39.921Z,17.13
2022-08-26T05:31:24.360Z,17.14
2022-08-26T05:33:52.906Z,17.09
2022-08-26T05:36:23.871Z,17.08
2022-08-26T05:38:58.709Z,17.05
2022-08-26T05:41:39.520Z,17.06
2022-08-26T05:44:11.247Z,17.01
2022-08-26T05:46:41.182Z,16.98
2022-08-26T05:49:12.719Z,16.95
2022-08-26T05:51:43.908Z,16.98
2022-08-26T05:54:22.348Z,16.97
2022-08-26T05:56:52.628Z,16.94
2022-08-26T05:59:28.253Z,16.89
2022-08-26T06:01:56.573Z,16.86
2022-08-26T06:04:29.213Z,16.84
2022-08-26T06:06:58.805Z,16.81
2022-08-26T06:09:27.776Z,16.80
2022-08-26T06:12:02.220Z,16.78
2022-08-26T06:14:33.377Z,16.77
2022-08-26T06:17:01.690Z,16.76
2022-08-26T06:19:32.882Z,16.74
2022-08-26T06:22:23.790Z,16.73
2022-08-26T06:25:10.488Z,16.72
2022-08-26T06:27:38.800Z,16.71
2022-08-26T06:30:07.631Z,16.72
2022-08-26T06:32:36.036Z,16.71
2022-08-26T06:35:04.391Z,16.69
2022-08-26T06:37:37.895Z,16.67
2022-08-26T06:40:07.900Z,16.65
2022-08-26T06:42:38.755Z,16.65
2022-08-26T06:45:07.603Z,16.64
2022-08-26T06:47:36.479Z,16.66
2022-08-26T06:50:07.975Z,16.65
2022-08-26T06:52:38.623Z,16.64
2022-08-26T06:55:07.303Z,16.61
2022-08-26T06:57:39.810Z,16.63
2022-08-26T07:00:11.490Z,16.64
2022-08-26T07:02:40.880Z,16.64
2022-08-26T07:05:18.758Z,16.66
2022-08-26T07:07:49.202Z,16.66
2022-08-26T07:10:17.484Z,16.66
2022-08-26T07:12:48.546Z,16.65
2022-08-26T07:15:17.393Z,16.65
2022-08-26T07:17:45.807Z,16.66
2022-08-26T07:20:17.351Z,16.67
2022-08-26T07:22:47.588Z,16.67
2022-08-26T07:25:19.327Z,16.66
2022-08-26T07:27:54.381Z,16.67
2022-08-26T07:30:23.078Z,16.66
2022-08-26T07:32:51.389Z,16.66
2022-08-26T07:35:19.704Z,16.67
2022-08-26T07:37:47.934Z,16.66
2022-08-26T07:40:22.681Z,16.65
2022-08-26T07:42:51.983Z,16.63
2022-08-26T07:45:21.004Z,16.60
2022-08-26T07:47:49.403Z,16.60
2022-08-26T07:50:18.080Z,16.60
2022-08-26T07:52:46.389Z,16.60
2022-08-26T07:55:14.888Z,16.60
2022-08-26T07:57:43.673Z,16.56
2022-08-26T08:00:19.456Z,16.54
2022-08-26T08:02:47.887Z,16.51
2022-08-26T08:05:23.245Z,16.51
2022-08-26T08:08:27.031Z,16.48
2022-08-26T08:10:56.694Z,16.45
2022-08-26T08:13:27.963Z,16.45
2022-08-26T08:15:58.867Z,16.42
2022-08-26T08:18:33.019Z,16.42
2022-08-26T08:21:23.691Z,16.43
2022-08-26T08:23:56.477Z,16.42
2022-08-26T08:26:31.006Z,16.41
2022-08-26T08:29:02.066Z,16.39
2022-08-26T08:31:55.963Z,16.37
2022-08-26T08:34:22.048Z,16.38
2022-08-26T08:36:53.297Z,16.37
2022-08-26T08:39:22.575Z,16.37
2022-08-26T08:42:23.520Z,16.38
2022-08-26T08:44:56.702Z,16.32
2022-08-26T08:47:39.927Z,16.30
2022-08-26T08:50:21.641Z,16.26
2022-08-26T08:53:05.771Z,16.23
2022-08-26T08:56:26.604Z,16.23
2022-08-26T08:59:17.215Z,16.19
2022-08-26T09:01:45.940Z,16.17
2022-08-26T09:04:44.839Z,16.19
2022-08-26T09:07:40.969Z,16.17
2022-08-26T09:10:26.761Z,16.15
2022-08-26T09:12:55.241Z,16.15
2022-08-26T09:15:35.233Z,16.15
2022-08-26T09:18:35.706Z,16.14
2022-08-26T09:21:07.274Z,16.10
2022-08-26T09:23:41.686Z,16.07
2022-08-26T09:26:30.752Z,16.09
2022-08-26T09:29:06.466Z,16.04
2022-08-26T09:31:37.742Z,16.04
2022-08-26T09:34:20.667Z,16.06
2022-08-26T09:36:57.172Z,16.02
2022-08-26T09:39:30.046Z,16.00
2022-08-26T09:42:11.740Z,16.00
2022-08-26T09:44:57.524Z,16.01
2022-08-26T09:47:32.842Z,15.99
2022-08-26T09:50:29.884Z,16.00
2022-08-26T09:53:37.093Z,15.98
2022-08-26T09:56:18.955Z,15.94
2022-08-26T09:58:49.276Z,15.93
2022-08-26T10:01:36.115Z,15.95
2022-08-26T10:04:26.937Z,15.93
2022-08-26T10:07:04.814Z,15.92
2022-08-26T10:09:41.446Z,15.89
2022-08-26T10:12:18.285Z,15.90
2022-08-26T10:14:53.031Z,15.90
2022-08-26T10:17:46.985Z,15.91
2022-08-26T10:20:28.257Z,15.92
2022-08-26T10:23:23.230Z,15.92
2022-08-26T10:26:14.265Z,15.91
2022-08-26T10:28:42.699Z,15.87
2022-08-26T10:31:51.401Z,15.90
2022-08-26T10:34:21.261Z,15.90
2022-08-26T10:37:14.702Z,15.91
2022-08-26T10:39:58.580Z,15.94
2022-08-26T10:42:44.281Z,15.93
2022-08-26T10:45:29.514Z,15.92
2022-08-26T10:48:00.842Z,15.94
2022-08-26T10:50:37.292Z,15.92
2022-08-26T10:53:09.943Z,15.96
2022-08-26T10:56:04.895Z,15.96
2022-08-26T10:58:39.805Z,15.93
2022-08-26T11:01:43.761Z,15.94
2022-08-26T11:04:45.613Z,15.92
2022-08-26T11:07:41.678Z,15.90
2022-08-26T11:10:44.460Z,15.88
2022-08-26T11:13:13.028Z,15.84
2022-08-26T11:15:41.705Z,15.85
2022-08-26T11:18:12.116Z,15.86
2022-08-26T11:20:51.090Z,15.86
2022-08-26T11:23:27.601Z,15.87
2022-08-26T11:26:11.240Z,15.89
2022-08-26T11:28:54.645Z,15.88
2022-08-26T11:31:58.169Z,15.86
2022-08-26T11:34:57.623Z,15.86
2022-08-26T11:37:37.114Z,15.86
2022-08-26T11:40:23.641Z,15.90
2022-08-26T11:43:01.622Z,15.96
2022-08-26T11:45:36.042Z,15.97
2022-08-26T11:48:22.431Z,15.99
2022-08-26T11:50:56.449Z,15.97
2022-08-26T11:53:29.922Z,15.99
2022-08-26T11:56:00.750Z,15.99
2022-08-26T11:58:30.139Z,15.97
2022-08-26T12:01:03.591Z,15.95
2022-08-26T12:03:51.229Z,15.95
2022-08-26T12:06:43.452Z,15.94
2022-08-26T12:09:22.419Z,15.92
2022-08-26T12:12:12.191Z,15.92
2022-08-26T12:14:40.805Z,15.90
2022-08-26T12:17:14.821Z,15.90
2022-08-26T12:19:44.454Z,15.88
2022-08-26T12:22:29.277Z,15.89
2022-08-26T12:25:01.118Z,15.88
2022-08-26T12:27:41.544Z,15.88
2022-08-26T12:30:13.875Z,15.85
2022-08-26T12:32:59.046Z,15.86
2022-08-26T12:35:29.684Z,15.89
2022-08-26T12:41:51.772Z,16.09
2022-08-26T12:44:42.455Z,16.16
2022-08-26T12:47:58.564Z,16.16
2022-08-26T12:50:38.833Z,16.20
2022-08-26T12:53:18.551Z,16.28
2022-08-26T12:55:52.850Z,16.30
2022-08-26T12:58:23.386Z,16.33
2022-08-26T13:01:11.483Z,16.42
2022-08-26T13:03:45.527Z,16.44
2022-08-26T13:06:18.459Z,16.40
2022-08-26T13:08:53.895Z,16.38
2022-08-26T13:11:36.207Z,16.34
2022-08-26T13:14:07.199Z,16.31
2022-08-26T13:16:36.009Z,16.29
2022-08-26T13:19:10.341Z,16.28
2022-08-26T13:21:53.330Z,16.30
2022-08-26T13:24:32.749Z,16.27
2022-08-26T13:27:06.089Z,16.27
2022-08-26T13:29:34.413Z,16.24
2022-08-26T13:32:04.353Z,16.23
2022-08-26T13:34:36.225Z,16.26
2022-08-26T13:37:05.497Z,16.26
2022-08-26T13:39:34.013Z,16.31
2022-08-26T13:42:02.434Z,16.35
2022-08-26T13:44:39.355Z,16.40
2022-08-26T13:47:08.145Z,16.45
2022-08-26T13:49:36.441Z,16.40
2022-08-26T13:52:05.039Z,16.34
2022-08-26T13:54:34.096Z,16.32
2022-08-26T13:57:02.481Z,16.33
2022-08-26T13:59:30.771Z,16.29
2022-08-26T14:01:59.648Z,16.30
2022-08-26T14:04:30.811Z,16.26
2022-08-26T14:06:59.097Z,16.24
2022-08-26T14:09:27.570Z,16.22
2022-08-26T14:11:56.280Z,16.19
2022-08-26T14:14:25.922Z,16.17
2022-08-26T14:16:59.651Z,16.14
2022-08-26T14:19:35.795Z,16.13
2022-08-26T14:22:05.246Z,16.14
2022-08-26T14:24:33.769Z,16.11
2022-08-26T14:27:04.752Z,16.07
2022-08-26T14:29:34.879Z,16.08
2022-08-26T14:32:12.436Z,16.08
2022-08-26T14:34:42.810Z,16.08
2022-08-26T14:37:15.167Z,16.05
2022-08-26T14:39:43.756Z,16.03
2022-08-26T14:42:18.356Z,16.02
2022-08-26T14:44:49.620Z,16.01
2022-08-26T14:47:17.553Z,16.03
2022-08-26T14:49:45.781Z,16.01
2022-08-26T14:52:14.203Z,15.97
2022-08-26T14:54:42.418Z,15.94
2022-08-26T14:57:14.346Z,15.86
2022-08-26T14:59:49.738Z,15.83
2022-08-26T15:02:32.394Z,15.86
2022-08-26T15:05:03.272Z,15.85
2022-08-26T15:07:31.833Z,15.84
2022-08-26T15:10:00.017Z,15.81
2022-08-26T15:12:28.659Z,15.79
2022-08-26T15:14:56.993Z,15.82
2022-08-26T15:17:25.741Z,15.85
2022-08-26T15:19:54.022Z,15.86
2022-08-26T15:22:22.516Z,15.86
2022-08-26T15:24:53.616Z,15.86
2022-08-26T15:27:25.424Z,15.88
2022-08-26T15:29:53.686Z,15.92
2022-08-26T15:32:22.006Z,15.98
2022-08-26T15:34:51.600Z,15.98
2022-08-26T15:37:19.947Z,16.02
2022-08-26T15:39:49.613Z,16.06
2022-08-26T15:42:18.670Z,16.06
2022-08-26T15:44:47.384Z,16.04
2022-08-26T15:47:15.725Z,16.02
2022-08-26T15:49:44.019Z,16.04
2022-08-26T15:52:12.485Z,16.02
2022-08-26T15:54:41.072Z,16.01
2022-08-26T15:57:12.948Z,16.04
2022-08-26T15:59:42.812Z,16.04
2022-08-26T16:02:11.737Z,16.07
2022-08-26T16:04:39.992Z,16.11
2022-08-26T16:07:08.528Z,16.17
2022-08-26T16:09:39.942Z,16.22
2022-08-26T16:14:47.366Z,16.29
2022-08-26T16:17:39.488Z,16.33
2022-08-26T16:22:57.372Z,16.32
2022-08-26T16:25:38.913Z,16.30
2022-08-26T16:28:11.593Z,16.29
2022-08-26T16:30:41.224Z,16.31
2022-08-26T16:33:13.093Z,16.35
2022-08-26T16:38:26.098Z,16.42
2022-08-26T16:40:54.593Z,16.43
2022-08-26T16:43:23.074Z,16.45
2022-08-26T16:45:51.322Z,16.49
2022-08-26T16:48:21.039Z,16.51
2022-08-26T16:50:50.218Z,16.56
2022-08-26T16:53:19.633Z,16.61
2022-08-26T16:55:49.342Z,16.66
2022-08-26T16:58:18.133Z,16.66
2022-08-26T17:04:10.698Z,16.59
2022-08-26T17:07:12.269Z,16.57
2022-08-26T17:09:41.447Z,16.63
2022-08-26T17:12:09.849Z,16.71
2022-08-26T17:14:40.075Z,16.80
2022-08-26T17:17:11.023Z,16.94
2022-08-26T17:19:47.242Z,17.13
2022-08-26T17:22:16.704Z,17.29
2022-08-26T17:24:53.477Z,17.37
2022-08-26T17:27:24.730Z,17.48
2022-08-26T17:29:52.725Z,17.57
2022-08-26T17:32:20.942Z,17.68
2022-08-26T17:34:49.331Z,17.75
2022-08-26T17:37:18.319Z,17.75
2022-08-26T17:39:51.274Z,17.81
2022-08-26T17:42:20.198Z,17.85
2022-08-26T17:44:49.504Z,17.87
2022-08-26T17:47:17.906Z,17.94
2022-08-26T17:49:46.672Z,18.06
2022-08-26T17:52:15.175Z,18.14
2022-08-26T17:54:45.731Z,18.18
2022-08-26T17:57:13.988Z,18.22
2022-08-26T17:59:43.223Z,18.33
2022-08-26T18:02:11.837Z,18.38
2022-08-26T18:04:40.205Z,18.50
2022-08-26T18:07:08.655Z,18.62
2022-08-26T18:09:37.487Z,18.75
2022-08-26T18:12:10.176Z,18.93
2022-08-26T18:14:38.655Z,19.06
2022-08-26T18:17:06.923Z,19.15
2022-08-26T18:19:35.298Z,19.22
2022-08-26T18:22:03.647Z,19.26
2022-08-26T18:24:33.092Z,19.30
2022-08-26T18:27:01.519Z,19.36
2022-08-26T18:29:30.009Z,19.44
2022-08-26T18:31:58.255Z,19.55
2022-08-26T18:34:31.874Z,19.62
2022-08-26T18:37:00.396Z,19.77
2022-08-26T18:39:28.791Z,19.81
2022-08-26T18:42:06.082Z,19.90
2022-08-26T18:44:39.033Z,19.97
2022-08-26T18:47:10.509Z,20.04
2022-08-26T18:49:41.600Z,20.10
2022-08-26T18:52:09.896Z,20.18
2022-08-26T18:54:38.304Z,20.28
2022-08-26T18:57:09.605Z,20.35
2022-08-26T18:59:37.947Z,20.42
2022-08-26T19:02:06.859Z,20.46
2022-08-26T19:04:35.415Z,20.51
2022-08-26T19:07:11.088Z,20.50
2022-08-26T19:09:39.444Z,20.50
2022-08-26T19:12:08.124Z,20.51
2022-08-26T19:14:37.517Z,20.55
2022-08-26T19:17:06.481Z,20.66
2022-08-26T19:19:35.063Z,20.73
2022-08-26T19:22:03.423Z,20.76
2022-08-26T19:24:34.675Z,20.84
2022-08-26T19:27:04.434Z,20.98
2022-08-26T19:29:38.952Z,21.10
2022-08-26T19:32:08.001Z,21.17
2022-08-26T19:34:37.251Z,21.21
2022-08-26T19:37:05.642Z,21.27
2022-08-26T19:39:33.963Z,21.20
2022-08-26T19:42:02.346Z,21.27
2022-08-26T19:44:48.941Z,21.36
2022-08-26T19:47:17.322Z,21.41
2022-08-26T19:49:46.592Z,21.42
2022-08-26T19:52:15.331Z,21.45
2022-08-26T19:54:43.697Z,21.48
2022-08-26T19:57:12.070Z,21.45
2022-08-26T19:59:41.409Z,21.46
2022-08-26T20:02:13.454Z,21.47
2022-08-26T20:04:42.664Z,21.56
2022-08-26T20:07:13.054Z,21.59
2022-08-26T20:09:45.254Z,21.59
2022-08-26T20:12:15.191Z,21.57
2022-08-26T20:14:43.844Z,21.56
2022-08-26T20:17:12.665Z,21.58
2022-08-26T20:20:02.224Z,21.50
2022-08-26T20:22:36.239Z,21.47
2022-08-26T20:25:04.873Z,21.46
2022-08-26T20:27:38.233Z,21.54
2022-08-26T20:30:14.658Z,21.64
2022-08-26T20:32:43.756Z,21.73
2022-08-26T20:35:14.119Z,21.74
2022-08-26T20:37:45.812Z,21.77
2022-08-26T20:40:15.642Z,21.79
2022-08-26T20:42:44.502Z,21.80
2022-08-26T20:45:13.026Z,21.88
2022-08-26T20:47:44.573Z,21.90
2022-08-26T20:50:12.963Z,21.89
2022-08-26T20:52:41.211Z,21.86
2022-08-26T20:55:10.198Z,21.86
2022-08-26T20:57:38.573Z,21.81
2022-08-26T21:00:08.342Z,21.83
2022-08-26T21:02:39.773Z,21.89
2022-08-26T21:05:11.235Z,21.94
2022-08-26T21:07:42.336Z,22.08
2022-08-26T21:10:11.355Z,22.12
2022-08-26T21:12:39.632Z,22.18
2022-08-26T21:15:08.578Z,22.32
2022-08-26T21:17:40.028Z,22.39
2022-08-26T21:20:11.178Z,22.43
2022-08-26T21:22:39.439Z,22.50
2022-08-26T21:25:42.332Z,22.58
2022-08-26T21:28:37.058Z,22.68
2022-08-26T21:31:23.046Z,22.76
2022-08-26T21:33:52.283Z,22.84
2022-08-26T21:37:15.300Z,22.84
2022-08-26T21:39:45.819Z,22.86
2022-08-26T21:45:07.999Z,22.92
2022-08-26T21:51:45.841Z,23.00
2022-08-26T21:55:03.109Z,23.09
2022-08-26T22:07:50.248Z,23.24
2022-08-26T22:41:52.936Z,23.75
2022-08-26T23:00:54.616Z,23.81
2022-08-26T23:20:25.914Z,23.38
2022-08-26T23:34:21.081Z,23.13
2022-08-26T23:53:18.580Z,22.55
2022-08-26T23:56:49.927Z,22.53
